Time;durP1;ratioP1;P1;durP2;ratioP2;P2;SDS_P1;SDS_P2;PMS_P1;PMS_P2;Temp;Humidity;BMP_temperature;BMP_pressure;BME280_temperature;BME280_humidity;BME280_pressure;Samples;Min_cycle;Max_cycle;Signal;HPM_P1;HPM_P2
2022/11/19 00:01:17;;;;;;;46.10;28.70;;;;;;;4.61;100.00;100604.44;5103218;28;20034;-68
2022/11/19 00:03:43;;;;;;;46.67;28.55;;;;;;;4.57;100.00;100592.13;5102800;28;20076;-70
2022/11/19 00:06:11;;;;;;;45.35;28.15;;;;;;;4.48;100.00;100595.41;5102072;28;20391;-68
2022/11/19 00:08:37;;;;;;;45.90;28.17;;;;;;;4.48;100.00;100604.13;5103402;28;20098;-68
2022/11/19 00:11:12;;;;;;;45.35;28.63;;;;;;;4.50;100.00;100607.69;5101794;28;20060;-68
2022/11/19 00:13:39;;;;;;;44.60;26.95;;;;;;;4.37;100.00;100600.38;5103526;28;20039;-68
2022/11/19 00:16:07;;;;;;;45.30;28.05;;;;;;;4.35;100.00;100609.91;5105304;28;20086;-69
2022/11/19 00:18:33;;;;;;;44.95;27.83;;;;;;;4.33;100.00;100601.13;5107926;27;20530;-69
2022/11/19 00:21:09;;;;;;;48.15;28.35;;;;;;;4.34;100.00;100608.16;5105050;28;20111;-68
2022/11/19 00:23:36;;;;;;;48.72;28.40;;;;;;;4.34;100.00;100613.38;5102795;28;20032;-68
2022/11/19 00:26:09;;;;;;;48.42;28.92;;;;;;;4.35;100.00;100612.50;5107919;28;20063;-69
2022/11/19 00:28:36;;;;;;;47.88;28.58;;;;;;;4.30;100.00;100611.53;5105627;28;20074;-68
2022/11/19 00:31:07;;;;;;;48.38;29.27;;;;;;;4.32;100.00;100622.91;5107861;28;20102;-68
2022/11/19 00:33:32;;;;;;;46.22;28.83;;;;;;;4.34;100.00;100613.38;5104912;28;20059;-68
2022/11/19 00:35:59;;;;;;;46.40;28.67;;;;;;;4.31;100.00;100616.78;5108117;28;20505;-68
2022/11/19 00:38:25;;;;;;;47.08;28.75;;;;;;;4.22;100.00;100626.13;5104725;28;20043;-68
2022/11/19 00:40:50;;;;;;;43.25;26.80;;;;;;;4.19;100.00;100619.06;5105996;28;20051;-69
2022/11/19 00:45:59;;;;;;;44.83;27.67;;;;;;;4.17;100.00;100633.84;5101357;28;20035;-69
2022/11/19 00:48:25;;;;;;;45.03;27.60;;;;;;;4.17;100.00;100632.13;5100478;28;20383;-68
2022/11/19 00:50:50;;;;;;;43.78;27.73;;;;;;;4.12;100.00;100632.84;5106877;28;20020;-69
2022/11/19 00:53:15;;;;;;;43.97;27.15;;;;;;;4.12;100.00;100625.88;5105735;27;20035;-68
2022/11/19 00:55:41;;;;;;;42.53;27.38;;;;;;;4.02;100.00;100629.09;5104394;28;20363;-69
2022/11/19 00:58:06;;;;;;;44.72;27.17;;;;;;;4.01;100.00;100625.56;5106818;28;20110;-68
2022/11/19 01:00:31;;;;;;;43.75;26.45;;;;;;;3.91;100.00;100630.53;5104525;28;20024;-70
2022/11/19 01:02:57;;;;;;;43.85;26.92;;;;;;;3.94;100.00;100630.59;5107580;27;20031;-71
2022/11/19 01:05:22;;;;;;;45.08;26.42;;;;;;;3.84;100.00;100632.97;5104178;28;20028;-72
2022/11/19 01:07:47;;;;;;;46.92;28.50;;;;;;;3.92;100.00;100642.78;5106591;28;20462;-70
2022/11/19 01:10:13;;;;;;;45.95;29.38;;;;;;;3.84;100.00;100632.97;5105787;28;20466;-71
2022/11/19 01:13:33;;;;;;;46.10;28.98;;;;;;;3.83;100.00;100635.53;5105131;28;20035;-70
2022/11/19 01:15:24;;;;;;;47.30;29.15;;;;;;;3.79;100.00;100650.25;5102809;28;20032;-70
2022/11/19 01:17:49;;;;;;;46.67;29.15;;;;;;;3.76;100.00;100644.06;5106527;28;20039;-71
2022/11/19 01:20:14;;;;;;;47.20;30.20;;;;;;;3.76;100.00;100655.38;5105166;28;20466;-70
2022/11/19 01:22:40;;;;;;;47.88;30.42;;;;;;;3.73;100.00;100652.69;5105206;28;20458;-71
2022/11/19 01:25:05;;;;;;;47.80;30.55;;;;;;;3.76;100.00;100660.63;5105960;28;20119;-70
2022/11/19 01:27:31;;;;;;;47.90;29.88;;;;;;;3.79;100.00;100658.09;5103621;28;20032;-70
2022/11/19 01:29:56;;;;;;;47.90;30.13;;;;;;;3.73;100.00;100668.38;5107512;28;20065;-71
2022/11/19 01:32:21;;;;;;;48.58;30.35;;;;;;;3.65;100.00;100665.53;5103892;28;20035;-72
2022/11/19 01:34:48;;;;;;;46.75;29.52;;;;;;;3.62;100.00;100675.00;5105773;28;20032;-70
2022/11/19 01:37:14;;;;;;;46.03;29.17;;;;;;;3.57;100.00;100682.72;5105181;28;20034;-73
2022/11/19 01:39:39;;;;;;;46.28;28.70;;;;;;;3.59;100.00;100677.53;5104521;28;20527;-70
2022/11/19 01:42:04;;;;;;;46.75;28.83;;;;;;;3.57;100.00;100682.72;5104938;28;20110;-70
2022/11/19 01:45:06;;;;;;;47.90;29.75;;;;;;;3.63;100.00;100682.03;5103428;28;20120;-67
2022/11/19 01:47:31;;;;;;;48.25;31.35;;;;;;;3.49;100.00;100678.97;5020773;28;20042;-68
2022/11/19 01:49:58;;;;;;;45.22;29.08;;;;;;;3.49;100.00;100685.13;5085765;28;20509;-68
2022/11/19 01:52:23;;;;;;;45.75;28.60;;;;;;;3.43;100.00;100684.03;5101993;28;20072;-68
2022/11/19 01:54:50;;;;;;;46.00;28.55;;;;;;;3.37;100.00;100689.94;5105731;28;20454;-68
2022/11/19 01:57:17;;;;;;;44.88;28.02;;;;;;;3.37;100.00;100686.47;5104751;28;20035;-68
2022/11/19 01:59:45;;;;;;;43.03;27.42;;;;;;;3.34;100.00;100688.97;5104546;28;20082;-68
2022/11/19 02:02:11;;;;;;;44.72;27.02;;;;;;;3.29;100.00;100688.81;5104966;28;20015;-68
2022/11/19 02:04:38;;;;;;;42.80;26.90;;;;;;;3.28;100.00;100700.13;5103831;28;20347;-68
2022/11/19 02:07:05;;;;;;;43.55;27.13;;;;;;;3.29;100.00;100687.09;5105661;28;20024;-68
2022/11/19 02:09:32;;;;;;;45.17;26.73;;;;;;;3.29;100.00;100702.78;5101498;28;20039;-68
2022/11/19 02:12:11;;;;;;;44.00;26.67;;;;;;;3.29;100.00;100694.03;5098908;28;20037;-68
2022/11/19 02:15:05;;;;;;;43.92;28.30;;;;;;;3.30;100.00;100696.69;5101091;28;20020;-68
2022/11/19 02:17:57;;;;;;;45.90;27.15;;;;;;;3.44;100.00;100702.38;5099242;28;20062;-69
2022/11/19 02:20:40;;;;;;;40.05;25.80;;;;;;;3.34;100.00;100700.31;5105664;28;20026;-68
2022/11/19 02:23:21;;;;;;;39.30;24.00;;;;;;;3.35;100.00;100702.09;5100630;28;20027;-68
2022/11/19 02:26:25;;;;;;;38.92;24.70;;;;;;;3.35;100.00;100706.41;5103917;28;20486;-67
2022/11/19 02:29:12;;;;;;;36.30;22.70;;;;;;;3.22;100.00;100711.25;5104466;28;20084;-68
2022/11/19 02:31:47;;;;;;;36.65;23.13;;;;;;;3.17;100.00;100704.97;5100802;28;20031;-68
2022/11/19 02:34:20;;;;;;;37.17;24.00;;;;;;;3.16;100.00;100704.94;5104070;28;20115;-69
2022/11/19 02:36:56;;;;;;;;;;;;;;;3.26;100.00;100707.91;5104150;28;20344;-68
2022/11/19 02:39:34;;;;;;;35.78;22.65;;;;;;;3.10;100.00;100705.63;5102861;28;19950;-68
2022/11/19 02:42:03;;;;;;;33.42;21.30;;;;;;;3.10;100.00;100705.63;5098610;28;20112;-68
2022/11/19 02:47:28;;;;;;;32.60;20.60;;;;;;;2.99;100.00;100707.03;5103509;28;20448;-68
2022/11/19 02:49:59;;;;;;;31.85;20.65;;;;;;;2.93;100.00;100707.69;5102332;28;20024;-68
2022/11/19 02:52:27;;;;;;;33.35;21.58;;;;;;;2.89;100.00;100716.25;5105286;28;20043;-68
2022/11/19 02:54:52;;;;;;;33.85;21.60;;;;;;;2.92;100.00;100718.97;5102315;28;20463;-68
2022/11/19 02:57:17;;;;;;;33.03;21.15;;;;;;;2.90;100.00;100718.94;5104148;28;20513;-68
2022/11/19 03:05:47;;;;;;;33.45;22.10;;;;;;;2.77;100.00;100721.97;5101209;28;20416;-67
2022/11/19 03:08:12;;;;;;;33.72;21.58;;;;;;;2.73;100.00;100720.97;5103571;28;20531;-68
2022/11/19 03:11:22;;;;;;;33.20;21.33;;;;;;;2.73;100.00;100726.19;5102747;28;20028;-70
2022/11/19 03:17:29;;;;;;;34.88;23.67;;;;;;;2.70;100.00;100740.88;5070612;28;20553;-68
2022/11/19 03:20:04;;;;;;;33.80;22.58;;;;;;;2.61;100.00;100731.88;5104876;28;20019;-68
2022/11/19 03:22:45;;;;;;;32.40;21.90;;;;;;;2.58;100.00;100731.75;5097852;28;20067;-67
2022/11/19 03:25:21;;;;;;;35.33;23.30;;;;;;;2.59;100.00;100732.63;5100366;28;20035;-67
2022/11/19 03:27:50;;;;;;;33.92;22.73;;;;;;;2.55;100.00;100733.34;5102974;28;20035;-74
2022/11/19 03:30:17;;;;;;;33.63;22.40;;;;;;;2.59;100.00;100733.56;5103542;28;20028;-73
2022/11/19 03:33:01;;;;;;;33.25;22.40;;;;;;;2.59;100.00;100750.91;5103419;28;20027;-73
2022/11/19 03:35:34;;;;;;;35.85;23.15;;;;;;;2.58;100.00;100744.81;5104786;28;20106;-73
2022/11/19 03:38:03;;;;;;;35.10;23.15;;;;;;;2.58;100.00;100741.31;5097537;28;20038;-73
2022/11/19 03:40:30;;;;;;;33.15;22.05;;;;;;;2.53;100.00;100742.88;5097333;28;20110;-73
2022/11/19 03:42:59;;;;;;;34.47;23.17;;;;;;;2.53;100.00;100742.88;5104549;28;20023;-68
2022/11/19 03:45:28;;;;;;;35.75;23.67;;;;;;;2.44;100.00;100741.69;5101551;28;20039;-73
2022/11/19 03:47:55;;;;;;;35.47;23.85;;;;;;;2.41;100.00;100743.31;5104662;28;20023;-72
2022/11/19 03:50:42;;;;;;;35.80;23.75;;;;;;;2.38;100.00;100749.31;5109024;27;20046;-73
2022/11/19 03:53:07;;;;;;;36.58;24.55;;;;;;;2.38;100.00;100754.53;5105683;28;20483;-71
2022/11/19 03:55:46;;;;;;;35.60;23.98;;;;;;;2.38;100.00;100756.28;5110155;28;20077;-73
2022/11/19 03:58:11;;;;;;;36.30;24.40;;;;;;;2.32;100.00;100754.31;5109723;28;20148;-71
2022/11/19 04:00:36;;;;;;;35.70;23.20;;;;;;;2.36;100.00;100751.00;5110697;27;20039;-74
2022/11/19 04:03:02;;;;;;;36.63;24.17;;;;;;;2.31;100.00;100755.16;5107909;28;20089;-73
2022/11/19 04:05:28;;;;;;;37.70;24.30;;;;;;;2.27;100.00;100753.25;5103608;28;20115;-73
2022/11/19 04:07:53;;;;;;;37.55;24.60;;;;;;;2.26;100.00;100749.75;5110522;28;20036;-73
2022/11/19 04:10:18;;;;;;;38.17;25.05;;;;;;;2.22;100.00;100757.44;5109134;27;20466;-73
2022/11/19 04:12:44;;;;;;;38.10;24.38;;;;;;;2.25;100.00;100758.41;5109372;28;20024;-74
2022/11/19 04:15:11;;;;;;;38.42;25.58;;;;;;;2.30;100.00;100765.53;5110416;27;20024;-72
2022/11/19 04:17:37;;;;;;;38.60;24.33;;;;;;;2.25;100.00;100765.38;5108636;28;20394;-74
2022/11/19 04:20:04;;;;;;;37.03;24.77;;;;;;;2.26;100.00;100768.03;5109845;28;20034;-73
2022/11/19 04:22:29;;;;;;;38.45;25.27;;;;;;;2.26;100.00;100770.63;5107706;28;20028;-73
2022/11/19 04:24:54;;;;;;;37.50;24.33;;;;;;;2.21;100.00;100774.81;5109717;28;20474;-74
2022/11/19 04:27:20;;;;;;;38.67;24.83;;;;;;;2.19;100.00;100780.78;5108750;27;20482;-73
2022/11/19 04:29:45;;;;;;;36.70;24.17;;;;;;;2.15;100.00;100786.72;5109349;28;20028;-74
2022/11/19 04:32:10;;;;;;;37.83;25.08;;;;;;;2.11;100.00;100787.44;5110046;27;20055;-73
2022/11/19 04:34:36;;;;;;;36.65;24.30;;;;;;;2.05;100.00;100781.16;5108023;28;20032;-73
2022/11/19 04:37:01;;;;;;;38.40;24.65;;;;;;;2.02;100.00;100791.47;5111190;27;20027;-68
2022/11/19 04:39:26;;;;;;;37.78;24.92;;;;;;;2.00;100.00;100798.34;5107745;28;20115;-73
2022/11/19 04:41:52;;;;;;;36.55;24.45;;;;;;;1.96;100.00;100786.00;5110188;28;20067;-73
2022/11/19 04:44:17;;;;;;;37.88;25.27;;;;;;;1.95;100.00;100796.38;5109173;27;20031;-74
2022/11/19 04:46:42;;;;;;;37.95;26.10;;;;;;;1.91;100.00;100792.78;5108657;28;20118;-74
2022/11/19 04:49:08;;;;;;;38.22;25.55;;;;;;;1.94;100.00;100795.50;5110425;27;20115;-68
2022/11/19 04:51:33;;;;;;;39.17;25.77;;;;;;;1.92;100.00;100797.16;5107510;28;20406;-68
2022/11/19 04:53:58;;;;;;;36.92;25.10;;;;;;;1.92;100.00;100799.75;5110968;27;20063;-68
2022/11/19 04:56:24;;;;;;;38.95;26.63;;;;;;;1.92;100.00;100794.53;5107841;27;20383;-68
2022/11/19 04:58:49;;;;;;;39.58;25.65;;;;;;;1.90;100.00;100794.47;5110038;28;20031;-68
2022/11/19 05:01:14;;;;;;;40.00;26.50;;;;;;;1.92;100.00;100807.56;5105887;27;20092;-68
2022/11/19 05:03:40;;;;;;;39.35;26.23;;;;;;;1.91;100.00;100804.09;5105112;28;20135;-68
2022/11/19 05:06:05;;;;;;;38.67;26.55;;;;;;;1.94;100.00;100805.03;5107171;28;20484;-68
2022/11/19 05:08:31;;;;;;;36.83;25.08;;;;;;;1.91;100.00;100803.22;5103963;28;20470;-68
2022/11/19 05:10:56;;;;;;;38.50;25.27;;;;;;;1.96;100.00;100809.47;5107375;28;20023;-67
2022/11/19 05:13:22;;;;;;;40.08;26.27;;;;;;;1.99;100.00;100814.81;5104890;28;20390;-67
2022/11/19 05:15:47;;;;;;;39.08;27.05;;;;;;;2.02;100.00;100824.47;5105805;28;20391;-68
2022/11/19 05:18:13;;;;;;;38.33;26.08;;;;;;;1.98;100.00;100823.47;5105950;28;20043;-68
2022/11/19 05:20:38;;;;;;;39.08;27.88;;;;;;;2.00;100.00;100829.63;5103360;28;20209;-68
2022/11/19 05:23:04;;;;;;;40.22;27.30;;;;;;;1.97;100.00;100826.91;5107112;28;20046;-68
2022/11/19 05:25:29;;;;;;;40.10;26.88;;;;;;;2.02;100.00;100829.69;5103880;28;20107;-68
2022/11/19 05:27:55;;;;;;;40.53;26.35;;;;;;;2.03;100.00;100834.97;5106568;28;20035;-68
2022/11/19 05:30:20;;;;;;;39.22;27.27;;;;;;;1.99;100.00;100843.50;5104540;27;20044;-68
2022/11/19 05:32:46;;;;;;;40.75;28.50;;;;;;;1.98;100.00;100833.91;5105443;28;20051;-67
2022/11/19 05:35:11;;;;;;;40.95;28.85;;;;;;;1.97;100.00;100844.28;5105662;28;20382;-68
2022/11/19 05:37:37;;;;;;;39.47;27.83;;;;;;;1.88;100.00;100839.59;5103847;28;20024;-68
2022/11/19 05:40:03;;;;;;;39.40;27.15;;;;;;;1.85;100.00;100837.75;5107159;28;20024;-67
2022/11/19 05:42:28;;;;;;;39.75;27.38;;;;;;;1.80;100.00;100841.00;5099059;28;20024;-68
2022/11/19 05:44:53;;;;;;;39.22;27.23;;;;;;;1.81;100.00;100842.78;5106163;28;20023;-70
2022/11/19 05:47:19;;;;;;;40.85;27.42;;;;;;;1.78;100.00;100837.44;5104588;28;20035;-68
2022/11/19 05:49:44;;;;;;;39.80;27.63;;;;;;;1.76;100.00;100841.69;5104930;28;20039;-67
2022/11/19 05:52:10;;;;;;;39.88;28.30;;;;;;;1.73;100.00;100852.88;5105828;28;20052;-68
2022/11/19 05:54:35;;;;;;;40.38;27.98;;;;;;;1.72;100.00;100846.78;5103366;28;20379;-68
2022/11/19 05:57:02;;;;;;;40.40;27.80;;;;;;;1.73;100.00;100845.97;5106800;28;20023;-67
2022/11/19 05:59:27;;;;;;;41.40;28.92;;;;;;;1.78;100.00;100859.19;5103265;28;20067;-67
2022/11/19 06:01:52;;;;;;;41.63;28.50;;;;;;;1.76;100.00;100859.94;5105837;28;20486;-67
2022/11/19 06:04:18;;;;;;;40.45;28.63;;;;;;;1.71;100.00;100859.78;5104572;28;20089;-67
2022/11/19 06:06:43;;;;;;;40.33;28.23;;;;;;;1.70;100.00;100868.41;5104276;28;20032;-67
2022/11/19 06:09:08;;;;;;;40.28;28.33;;;;;;;1.69;100.00;100870.13;5105657;28;20043;-67
2022/11/19 06:11:49;;;;;;;40.08;28.92;;;;;;;1.63;100.00;100869.91;5102113;28;20106;-68
2022/11/19 06:14:20;;;;;;;41.85;29.85;;;;;;;1.60;100.00;100877.56;5105012;28;20028;-68
2022/11/19 06:16:47;;;;;;;40.22;28.15;;;;;;;1.60;100.00;100881.88;5104882;28;20082;-68
2022/11/19 06:19:12;;;;;;;41.45;29.58;;;;;;;1.56;100.00;100878.28;5104710;28;20023;-68
2022/11/19 06:21:38;;;;;;;41.45;29.95;;;;;;;1.60;100.00;100882.78;5103093;28;20028;-68
2022/11/19 06:24:03;;;;;;;41.70;30.05;;;;;;;1.56;100.00;100884.38;5106216;28;20027;-68
2022/11/19 06:26:29;;;;;;;42.13;30.48;;;;;;;1.51;100.00;100885.88;5098253;28;20046;-67
2022/11/19 06:28:55;;;;;;;42.83;31.27;;;;;;;1.54;100.00;100890.34;5105262;28;20077;-68
2022/11/19 06:31:21;;;;;;;42.00;30.50;;;;;;;1.49;100.00;100892.75;5103632;28;20148;-68
2022/11/19 06:33:46;;;;;;;44.20;30.10;;;;;;;1.59;100.00;100904.47;5104041;28;20606;-67
2022/11/19 06:36:12;;;;;;;43.35;30.83;;;;;;;1.44;100.00;100909.91;5104682;28;20102;-68
2022/11/19 06:38:38;;;;;;;44.53;31.42;;;;;;;1.37;100.00;100907.88;5103180;28;20094;-73
2022/11/19 06:41:03;;;;;;;43.47;31.20;;;;;;;1.39;100.00;100914.91;5105667;28;20146;-72
2022/11/19 06:43:28;;;;;;;42.42;30.15;;;;;;;1.32;100.00;100912.88;5101402;28;20032;-72
2022/11/19 06:45:54;;;;;;;44.30;31.50;;;;;;;1.28;100.00;100918.81;5104921;28;20039;-72
2022/11/19 06:48:19;;;;;;;43.55;31.58;;;;;;;1.29;100.00;100910.16;5103264;28;20031;-72
2022/11/19 06:50:45;;;;;;;44.90;31.90;;;;;;;1.28;100.00;100908.38;5103628;28;20546;-73
2022/11/19 06:53:11;;;;;;;45.97;32.90;;;;;;;1.28;100.00;100913.59;5104376;28;20059;-73
2022/11/19 06:55:37;;;;;;;45.60;31.65;;;;;;;1.27;100.00;100911.81;5101032;28;20025;-73
2022/11/19 06:58:03;;;;;;;44.58;32.33;;;;;;;1.30;100.00;100921.47;5105523;28;20020;-71
2022/11/19 07:00:29;;;;;;;46.75;33.95;;;;;;;1.28;100.00;100916.19;5102006;28;20510;-72
2022/11/19 07:02:54;;;;;;;45.85;32.55;;;;;;;1.24;100.00;100921.19;5104435;28;20071;-73
2022/11/19 07:05:19;;;;;;;45.38;33.13;;;;;;;1.28;100.00;100938.72;5103145;28;20024;-73
2022/11/19 07:07:44;;;;;;;46.60;33.28;;;;;;;1.32;100.00;100933.72;5103060;28;20524;-73
2022/11/19 07:10:10;;;;;;;45.53;32.53;;;;;;;1.24;100.00;100940.31;5104568;28;20027;-73
2022/11/19 07:12:35;;;;;;;47.13;32.90;;;;;;;1.29;100.00;100933.59;5102008;28;20020;-74
2022/11/19 07:15:01;;;;;;;46.60;33.28;;;;;;;1.24;100.00;100942.94;5104972;28;20442;-74
2022/11/19 07:17:26;;;;;;;48.20;33.67;;;;;;;1.20;100.00;100936.69;5102158;28;20028;-69
2022/11/19 07:19:52;;;;;;;47.38;33.70;;;;;;;1.19;100.00;100947.94;5104373;28;20024;-67
2022/11/19 07:22:17;;;;;;;45.60;31.90;;;;;;;1.13;100.00;100950.25;5103344;28;20413;-68
2022/11/19 07:24:42;;;;;;;48.75;33.08;;;;;;;1.13;100.00;100950.25;5102635;28;20463;-67
2022/11/19 07:27:07;;;;;;;47.70;32.55;;;;;;;1.09;100.00;100953.53;5104494;28;20385;-68
2022/11/19 07:29:33;;;;;;;47.35;32.88;;;;;;;1.05;100.00;100956.84;5101200;28;20032;-68
2022/11/19 07:31:58;;;;;;;45.55;30.60;;;;;;;1.00;100.00;100958.34;5104841;28;20077;-68
2022/11/19 07:34:23;;;;;;;46.25;32.08;;;;;;;1.04;100.00;100961.16;5102039;28;20092;-68
2022/11/19 07:36:49;;;;;;;44.60;30.85;;;;;;;0.99;100.00;100973.09;5103269;28;20121;-68
2022/11/19 07:39:15;;;;;;;45.05;30.48;;;;;;;1.00;100.00;100982.66;5103625;28;20028;-68
2022/11/19 07:44:24;;;;;;;47.88;32.10;;;;;;;0.99;100.00;100973.09;5102133;28;20560;-67
2022/11/19 07:46:50;;;;;;;47.80;32.75;;;;;;;1.03;100.00;100980.22;5103137;28;20122;-68
2022/11/19 07:49:15;;;;;;;46.30;31.52;;;;;;;1.03;100.00;100982.81;5103309;28;20055;-68
2022/11/19 07:51:41;;;;;;;46.95;31.92;;;;;;;1.10;100.00;100981.38;5101702;28;20055;-68
2022/11/19 07:54:08;;;;;;;46.10;31.48;;;;;;;1.03;100.00;100982.81;5104399;28;20081;-68
2022/11/19 07:56:34;;;;;;;47.42;32.30;;;;;;;1.07;100.00;100988.16;5101273;28;20029;-68
2022/11/19 07:58:59;;;;;;;47.67;32.13;;;;;;;1.02;100.00;100983.63;5104694;28;20034;-68
2022/11/19 08:01:25;;;;;;;45.47;30.42;;;;;;;1.09;100.00;100984.78;5101831;28;20490;-67
2022/11/19 08:03:52;;;;;;;46.97;31.52;;;;;;;1.03;100.00;100985.44;5103185;28;20024;-68
2022/11/19 08:06:18;;;;;;;47.53;31.92;;;;;;;1.07;100.00;100982.97;5102895;28;20035;-68
2022/11/19 08:08:44;;;;;;;45.55;31.60;;;;;;;1.17;100.00;100982.56;5102390;28;20063;-67
2022/11/19 08:11:12;;;;;;;44.13;30.73;;;;;;;1.07;100.00;100989.03;5103958;28;20028;-68
2022/11/19 08:13:38;;;;;;;46.58;32.53;;;;;;;1.10;100.00;101001.31;5101269;28;20055;-68
2022/11/19 08:16:07;;;;;;;43.95;31.25;;;;;;;1.15;100.00;100997.19;5104514;28;20046;-67
2022/11/19 08:18:33;;;;;;;46.28;30.85;;;;;;;1.02;100.00;101004.47;5097230;28;20031;-67
2022/11/19 08:21:07;;;;;;;45.20;31.10;;;;;;;1.12;100.00;101012.69;5104097;28;20510;-68
2022/11/19 08:23:33;;;;;;;44.97;30.98;;;;;;;1.06;100.00;101002.00;5097075;28;20028;-73
2022/11/19 08:25:58;;;;;;;45.15;31.20;;;;;;;1.06;100.00;101002.00;5103081;28;20111;-72
2022/11/19 08:28:24;;;;;;;46.22;31.80;;;;;;;1.10;100.00;101006.53;5101536;28;20106;-70
2022/11/19 08:30:49;;;;;;;43.10;30.73;;;;;;;1.11;100.00;101008.31;5102761;28;20455;-71
2022/11/19 08:33:14;;;;;;;44.72;31.20;;;;;;;1.15;100.00;101010.22;5101831;28;20032;-72
2022/11/19 08:35:40;;;;;;;44.10;30.08;;;;;;;1.09;100.00;101008.22;5102796;28;20046;-71
2022/11/19 08:38:05;;;;;;;46.55;31.65;;;;;;;1.08;100.00;101019.47;5108249;28;20111;-72
2022/11/19 08:40:30;;;;;;;43.38;31.63;;;;;;;1.08;100.00;101018.56;5104539;28;20024;-71
2022/11/19 08:42:59;;;;;;;45.45;32.00;;;;;;;1.18;100.00;101012.97;5107359;28;20024;-69
2022/11/19 08:45:34;;;;;;;45.70;31.38;;;;;;;1.23;100.00;101019.28;5108137;28;20076;-71
2022/11/19 08:48:01;;;;;;;44.08;31.02;;;;;;;1.25;100.00;101012.41;5104633;28;20027;-72
2022/11/19 08:50:27;;;;;;;43.35;29.55;;;;;;;1.24;100.00;101017.56;5107298;28;20034;-68
2022/11/19 08:53:01;;;;;;;43.30;30.15;;;;;;;1.28;100.00;101020.38;5105185;28;20126;-72
2022/11/19 08:55:29;;;;;;;43.00;30.25;;;;;;;1.21;100.00;101021.81;5107366;28;20028;-68
2022/11/19 08:58:06;;;;;;;45.75;30.52;;;;;;;1.19;100.00;101022.56;5104907;28;20497;-71
2022/11/19 09:00:34;;;;;;;43.90;30.02;;;;;;;1.25;100.00;101029.75;5100082;28;20028;-72
2022/11/19 09:02:59;;;;;;;43.00;29.63;;;;;;;1.24;100.00;101025.38;5107225;28;20543;-72
2022/11/19 09:05:25;;;;;;;42.67;28.73;;;;;;;1.17;100.00;101022.50;5104916;28;20032;-73
2022/11/19 09:07:50;;;;;;;43.78;29.65;;;;;;;1.17;100.00;101032.03;5105975;28;20122;-71
2022/11/19 09:10:17;;;;;;;44.88;30.05;;;;;;;1.26;100.00;101034.16;5106281;27;20059;-69
2022/11/19 09:12:42;;;;;;;43.25;29.08;;;;;;;1.29;100.00;101040.38;5105026;28;20028;-71
2022/11/19 09:15:08;;;;;;;41.92;29.58;;;;;;;1.27;100.00;101031.63;5106922;28;20035;-69
2022/11/19 09:17:34;;;;;;;42.33;28.48;;;;;;;1.24;100.00;101033.19;5103817;28;20028;-71
2022/11/19 09:19:59;;;;;;;42.50;29.10;;;;;;;1.18;100.00;101036.41;5106042;28;20027;-71
2022/11/19 09:22:25;;;;;;;43.15;28.65;;;;;;;1.15;100.00;101041.47;5104543;28;20030;-67
2022/11/19 09:24:50;;;;;;;43.65;29.95;;;;;;;1.18;100.00;101047.72;5105905;28;20036;-67
2022/11/19 09:27:15;;;;;;;42.83;29.27;;;;;;;1.23;100.00;101047.94;5105523;28;20038;-67
2022/11/19 09:29:41;;;;;;;41.45;28.42;;;;;;;1.28;100.00;101058.56;5104278;28;20028;-68
2022/11/19 09:32:06;;;;;;;42.38;29.05;;;;;;;1.18;100.00;101052.94;5107459;28;20602;-69
2022/11/19 09:34:33;;;;;;;41.53;29.00;;;;;;;1.18;100.00;101057.22;5103464;28;20474;-67
2022/11/19 09:36:59;;;;;;;44.42;31.05;;;;;;;1.21;100.00;101057.41;5106884;28;20449;-67
2022/11/19 09:39:24;;;;;;;47.30;33.85;;;;;;;1.19;100.00;101059.03;5103094;28;20123;-68
2022/11/19 09:42:04;;;;;;;41.78;28.92;;;;;;;1.30;100.00;101070.84;5105220;28;20034;-68
2022/11/19 09:44:29;;;;;;;42.50;28.85;;;;;;;1.28;100.00;101069.88;5103356;28;20028;-68
2022/11/19 09:46:57;;;;;;;40.67;28.73;;;;;;;1.34;100.00;101077.97;5105481;28;20035;-68
2022/11/19 09:49:40;;;;;;;44.55;30.40;;;;;;;1.35;100.00;101081.44;5104805;28;20028;-67
2022/11/19 09:52:12;;;;;;;62.58;46.25;;;;;;;1.32;100.00;101087.41;5099695;28;20093;-68
2022/11/19 09:54:45;;;;;;;144.93;116.32;;;;;;;1.36;100.00;101093.66;5106289;28;20089;-68
2022/11/19 09:57:12;;;;;;;;;;;;;;;1.45;100.00;101095.81;5104042;28;20020;-68
2022/11/19 09:59:39;;;;;;;42.40;29.42;;;;;;;1.41;100.00;101091.25;5106430;28;20429;-68
2022/11/19 10:02:17;;;;;;;41.95;27.90;;;;;;;1.37;100.00;101091.13;5102960;28;20148;-68
2022/11/19 10:04:44;;;;;;;42.97;28.38;;;;;;;1.29;100.00;101092.47;5101151;28;20387;-68
2022/11/19 10:07:52;;;;;;;41.13;26.95;;;;;;;1.28;100.00;101095.00;5106016;28;20450;-68
2022/11/19 10:10:53;;;;;;;40.83;27.25;;;;;;;1.37;100.00;101096.34;5102773;28;20042;-68
2022/11/19 10:13:39;;;;;;;41.42;26.98;;;;;;;1.26;100.00;101092.34;5102884;28;20024;-67
2022/11/19 10:16:07;;;;;;;41.25;27.48;;;;;;;1.25;100.00;101094.88;5069498;28;20032;-68
2022/11/19 10:18:38;;;;;;;42.33;28.52;;;;;;;1.24;100.00;101099.22;5098473;28;20473;-68
2022/11/19 10:21:07;;;;;;;42.30;28.50;;;;;;;1.22;100.00;101093.00;5098563;28;20024;-68
2022/11/19 10:23:46;;;;;;;41.85;28.15;;;;;;;1.24;100.00;101093.09;5098989;28;20039;-68
2022/11/19 10:26:14;;;;;;;40.83;27.52;;;;;;;1.24;100.00;101099.22;5100708;28;20028;-68
2022/11/19 10:28:47;;;;;;;40.95;27.50;;;;;;;1.25;100.00;101103.56;5105437;28;20043;-68
2022/11/19 10:31:46;;;;;;;41.80;26.88;;;;;;;1.35;100.00;101107.50;5103223;28;20498;-68
2022/11/19 10:34:35;;;;;;;41.72;27.92;;;;;;;1.25;100.00;101110.50;5098435;28;20044;-68
2022/11/19 10:37:12;;;;;;;41.88;28.77;;;;;;;1.19;100.00;101122.44;5102591;28;20031;-68
2022/11/19 10:40:07;;;;;;;41.88;29.08;;;;;;;1.24;100.00;101119.13;5099387;28;20024;-68
2022/11/19 10:42:39;;;;;;;42.47;28.67;;;;;;;1.17;100.00;101117.97;5098269;28;20110;-68
2022/11/19 10:45:14;;;;;;;40.40;26.48;;;;;;;1.16;100.00;101117.06;5098582;28;20043;-68
2022/11/19 10:47:54;;;;;;;40.05;25.80;;;;;;;1.11;100.00;101117.69;5099420;28;20024;-68
2022/11/19 10:50:22;;;;;;;42.20;27.02;;;;;;;1.10;100.00;101111.56;5103760;28;20028;-68
2022/11/19 10:52:52;;;;;;;39.75;25.50;;;;;;;1.12;100.00;101107.34;5103520;28;20487;-68
2022/11/19 10:55:49;;;;;;;41.58;26.15;;;;;;;1.15;100.00;101111.78;5104117;28;20019;-67
2022/11/19 10:58:24;;;;;;;39.58;26.45;;;;;;;1.18;100.00;101119.72;5084846;28;20133;-68
2022/11/19 11:00:53;;;;;;;39.72;26.10;;;;;;;1.18;100.00;101122.34;5103860;28;20038;-67
2022/11/19 11:03:24;;;;;;;40.13;26.17;;;;;;;1.13;100.00;101114.31;5103411;28;20069;-67
2022/11/19 11:06:04;;;;;;;44.35;30.70;;;;;;;1.08;100.00;101122.72;5103303;28;20511;-67
2022/11/19 11:08:29;;;;;;;37.88;24.30;;;;;;;1.13;100.00;101118.66;5104758;28;20068;-68
2022/11/19 11:10:55;;;;;;;37.10;24.13;;;;;;;1.21;100.00;101118.19;5102778;28;20047;-68
2022/11/19 11:16:18;;;;;;;39.08;27.08;;;;;;;1.24;100.00;101120.03;5099917;28;20039;-68
2022/11/19 11:18:46;;;;;;;38.47;25.63;;;;;;;1.20;100.00;101108.56;5104295;28;20398;-68
2022/11/19 11:21:28;;;;;;;37.22;23.85;;;;;;;1.25;100.00;101116.59;5100905;28;20516;-68
2022/11/19 11:23:54;;;;;;;38.10;25.10;;;;;;;1.24;100.00;101108.72;5102967;28;20015;-68
2022/11/19 11:26:28;;;;;;;38.42;25.38;;;;;;;1.29;100.00;101113.31;5103089;28;20290;-67
2022/11/19 11:28:56;;;;;;;36.13;23.83;;;;;;;1.23;100.00;101117.38;5102459;28;20036;-68
2022/11/19 11:31:36;;;;;;;36.05;23.38;;;;;;;1.28;100.00;101108.97;5103141;28;20068;-68
2022/11/19 11:34:04;;;;;;;37.35;24.92;;;;;;;1.37;100.00;101105.88;5101763;28;20061;-68
2022/11/19 11:36:33;;;;;;;36.88;23.88;;;;;;;1.40;100.00;101108.63;5104307;28;20040;-68
2022/11/19 11:39:00;;;;;;;34.90;22.92;;;;;;;1.44;100.00;101099.22;5101763;28;20016;-68